Time;durP1;ratioP1;P1;durP2;ratioP2;P2;SDS_P1;SDS_P2;PMS_P1;PMS_P2;Temp;Humidity;BMP_temperature;BMP_pressure;BME280_temperature;BME280_humidity;BME280_pressure;Samples;Min_cycle;Max_cycle;Signal;HPM_P1;HPM_P2
2022/11/11 00:01:07;;;;;;;12.82;7.85;;;10.00;99.90;;;;;;5072577;28;20086;-30
2022/11/11 00:03:32;;;;;;;10.40;7.05;;;10.00;99.90;;;;;;5072387;28;20127;-33
2022/11/11 00:06:10;;;;;;;12.90;7.65;;;10.10;99.90;;;;;;5049748;28;20064;-32
2022/11/11 00:08:35;;;;;;;9.80;7.18;;;10.00;99.90;;;;;;5072054;28;20402;-34
2022/11/11 00:11:04;;;;;;;15.88;8.35;;;10.10;99.90;;;;;;5065692;28;20036;-32
2022/11/11 00:13:30;;;;;;;13.50;8.38;;;10.10;99.90;;;;;;5072240;28;20036;-35
2022/11/11 00:16:02;;;;;;;12.82;8.23;;;10.10;99.90;;;;;;5071333;28;20033;-33
2022/11/11 00:26:41;;;;;;;17.20;9.18;;;10.10;99.90;;;;;;5066956;28;20051;-33
2022/11/11 00:29:07;;;;;;;14.95;8.63;;;10.20;99.90;;;;;;5048121;28;20033;-31
2022/11/11 00:31:34;;;;;;;11.70;8.38;;;10.20;99.90;;;;;;5048193;28;20527;-33
2022/11/11 00:34:00;;;;;;;15.88;8.23;;;10.20;99.90;;;;;;5051662;28;20037;-34
2022/11/11 00:36:26;;;;;;;11.80;8.10;;;10.20;99.90;;;;;;5058171;28;20070;-34
2022/11/11 00:38:54;;;;;;;14.32;8.43;;;10.20;99.90;;;;;;5071828;28;20042;-37
2022/11/11 00:41:22;;;;;;;14.95;9.50;;;10.20;99.90;;;;;;5070548;28;20198;-37
2022/11/11 00:43:48;;;;;;;14.48;9.27;;;10.30;99.90;;;;;;5050778;28;20039;-34
2022/11/11 00:52:04;;;;;;;;;;;10.30;99.90;;;;;;5038686;28;20041;-33
2022/11/11 00:54:30;;;;;;;17.42;9.95;;;10.20;99.90;;;;;;5019537;28;19983;-35
2022/11/11 00:56:55;;;;;;;14.85;9.50;;;10.20;99.90;;;;;;5043365;28;20055;-32
2022/11/11 00:59:21;;;;;;;14.02;8.95;;;10.20;99.90;;;;;;5049316;28;20039;-34
2022/11/11 01:01:47;;;;;;;13.32;9.95;;;10.20;99.90;;;;;;5071077;28;20032;-35
2022/11/11 01:04:13;;;;;;;13.95;9.70;;;10.10;99.90;;;;;;5056432;28;20178;-35
2022/11/11 01:06:38;;;;;;;14.60;10.02;;;10.10;99.90;;;;;;5067242;28;20135;-33
2022/11/11 01:09:05;;;;;;;13.30;9.80;;;10.10;99.90;;;;;;5062617;28;20514;-34
2022/11/11 01:11:31;;;;;;;16.23;10.27;;;10.00;99.90;;;;;;5057004;28;20036;-33
2022/11/11 01:13:56;;;;;;;15.88;10.13;;;10.00;99.90;;;;;;5065196;28;20183;-33
2022/11/11 01:16:25;;;;;;;17.20;10.35;;;9.90;99.90;;;;;;5049105;28;20509;-33
2022/11/11 01:18:52;;;;;;;15.18;9.90;;;9.80;99.90;;;;;;5070710;28;20029;-32
2022/11/11 01:21:21;;;;;;;19.92;11.15;;;9.80;99.90;;;;;;5081020;28;20048;-36
2022/11/11 01:23:48;;;;;;;17.63;11.18;;;9.70;99.90;;;;;;5055839;28;20043;-33
2022/11/11 01:26:27;;;;;;;15.00;10.48;;;9.70;99.90;;;;;;5058311;28;20029;-32
2022/11/11 01:28:55;;;;;;;16.10;10.80;;;9.70;99.90;;;;;;5057607;28;20119;-33
2022/11/11 01:31:22;;;;;;;17.17;11.20;;;9.60;99.90;;;;;;5060888;28;20094;-34
2022/11/11 01:33:48;;;;;;;16.13;11.15;;;9.60;99.90;;;;;;5076112;28;20040;-30
2022/11/11 01:36:19;;;;;;;16.02;12.38;;;9.60;99.90;;;;;;5069695;28;20660;-32
2022/11/11 01:38:49;;;;;;;18.50;12.82;;;9.50;99.90;;;;;;5054143;28;20040;-33
2022/11/11 01:41:33;;;;;;;16.08;12.07;;;9.50;99.90;;;;;;5052342;28;20079;-34
2022/11/11 01:44:17;;;;;;;18.50;12.63;;;9.50;99.90;;;;;;5066393;28;20039;-33
2022/11/11 01:46:48;;;;;;;19.42;12.18;;;9.40;99.90;;;;;;5056649;28;20041;-33
2022/11/11 01:49:28;;;;;;;25.73;12.73;;;9.40;99.90;;;;;;5053295;28;20041;-31
2022/11/11 01:52:15;;;;;;;20.50;12.30;;;9.50;99.90;;;;;;5069282;28;20044;-34
2022/11/11 01:54:46;;;;;;;19.58;13.15;;;9.40;99.90;;;;;;5060545;28;20040;-33
2022/11/11 01:57:15;;;;;;;17.45;12.90;;;9.40;99.90;;;;;;5062714;28;20036;-36
2022/11/11 01:59:45;;;;;;;19.10;12.98;;;9.40;99.90;;;;;;5074457;28;20474;-34
2022/11/11 02:02:21;;;;;;;22.10;13.65;;;9.40;99.90;;;;;;5085003;28;20063;-35
2022/11/11 02:07:33;;;;;;;18.75;13.27;;;9.30;99.90;;;;;;5071595;28;20090;-33
2022/11/11 02:10:01;;;;;;;19.95;13.82;;;9.40;99.90;;;;;;5070362;28;20040;-33
2022/11/11 02:15:12;;;;;;;23.40;15.40;;;9.30;99.90;;;;;;5063690;28;20398;-33
2022/11/11 02:17:38;;;;;;;23.67;15.27;;;9.30;99.90;;;;;;5060067;28;20040;-33
2022/11/11 02:20:05;;;;;;;22.65;15.63;;;9.30;99.90;;;;;;5058719;28;20481;-34
2022/11/11 02:22:47;;;;;;;22.35;15.98;;;9.30;99.90;;;;;;5070114;28;20166;-36
2022/11/11 02:25:17;;;;;;;21.50;16.70;;;9.30;99.90;;;;;;5053590;28;20040;-35
2022/11/11 02:27:48;;;;;;;28.80;17.63;;;9.30;99.90;;;;;;5082826;28;20205;-33
2022/11/11 02:30:15;;;;;;;27.75;17.95;;;9.30;99.90;;;;;;5077329;28;20036;-31
2022/11/11 02:32:46;;;;;;;26.30;17.65;;;9.30;99.90;;;;;;5070148;28;20070;-34
2022/11/11 02:35:17;;;;;;;23.65;17.00;;;9.40;99.90;;;;;;5070141;28;20499;-34
2022/11/11 02:37:51;;;;;;;25.33;17.95;;;9.30;99.90;;;;;;5068887;28;20390;-32
2022/11/11 02:40:19;;;;;;;;;;;9.30;99.90;;;;;;5055645;28;20040;-36
2022/11/11 02:42:45;;;;;;;26.58;18.27;;;9.30;99.90;;;;;;5060622;28;19958;-33
2022/11/11 02:45:11;;;;;;;32.00;19.17;;;9.30;99.90;;;;;;5073524;28;20064;-32
2022/11/11 02:47:37;;;;;;;28.08;20.20;;;9.30;99.90;;;;;;5073979;28;20047;-33
2022/11/11 02:50:03;;;;;;;29.88;19.13;;;9.30;99.90;;;;;;5093609;28;20389;-35
2022/11/11 02:52:29;;;;;;;29.38;19.15;;;9.30;99.90;;;;;;5058374;28;20117;-36
2022/11/11 02:54:54;;;;;;;30.55;19.40;;;9.30;99.90;;;;;;5062985;28;20040;-33
2022/11/11 02:57:21;;;;;;;30.45;20.02;;;9.30;99.90;;;;;;5064502;28;20047;-34
2022/11/11 02:59:49;;;;;;;29.83;19.85;;;9.30;99.90;;;;;;5051331;28;20389;-35
2022/11/11 03:02:15;;;;;;;31.65;21.08;;;9.30;99.90;;;;;;5053162;28;20114;-34
2022/11/11 03:04:41;;;;;;;29.33;20.20;;;9.30;99.90;;;;;;5059390;28;20430;-33
2022/11/11 03:07:07;;;;;;;29.50;20.08;;;9.30;99.90;;;;;;5060061;28;20040;-34
2022/11/11 03:09:33;;;;;;;33.28;21.08;;;9.30;99.90;;;;;;5073725;28;20041;-33
2022/11/11 03:11:59;;;;;;;33.22;21.35;;;9.40;99.90;;;;;;5062360;28;20486;-36
2022/11/11 03:14:24;;;;;;;33.80;21.60;;;9.40;99.90;;;;;;5084881;28;20036;-34
2022/11/11 03:19:35;;;;;;;35.67;21.85;;;9.50;99.90;;;;;;5074508;28;20051;-32
2022/11/11 03:22:02;;;;;;;31.70;21.63;;;9.50;99.90;;;;;;5072799;28;20051;-34
2022/11/11 03:25:36;;;;;;;31.30;21.52;;;9.50;99.90;;;;;;5063010;28;20051;-33
2022/11/11 03:27:14;;;;;;;36.08;22.85;;;9.60;99.90;;;;;;5089727;28;20044;-31
2022/11/11 03:29:41;;;;;;;34.88;23.55;;;9.70;99.90;;;;;;5073200;28;20525;-31
2022/11/11 03:32:08;;;;;;;29.92;20.50;;;9.70;99.90;;;;;;5071622;28;20036;-37
2022/11/11 03:34:34;;;;;;;34.75;21.90;;;9.80;99.90;;;;;;5052005;28;20032;-32
2022/11/11 03:39:44;;;;;;;31.17;21.65;;;9.80;99.90;;;;;;5087798;28;20052;-35
2022/11/11 03:42:10;;;;;;;32.25;21.35;;;9.80;99.90;;;;;;5063863;28;20040;-33
2022/11/11 03:44:35;;;;;;;34.53;22.42;;;9.80;99.90;;;;;;5074371;28;20394;-36
2022/11/11 03:47:01;;;;;;;35.58;23.30;;;9.80;99.90;;;;;;5065577;28;20482;-32
2022/11/11 03:49:27;;;;;;;33.45;22.20;;;9.70;99.90;;;;;;5069674;28;20040;-33
2022/11/11 03:51:52;;;;;;;38.25;24.17;;;9.70;99.90;;;;;;5074750;28;20036;-36
2022/11/11 03:54:18;;;;;;;36.03;23.63;;;9.70;99.90;;;;;;5074012;28;20047;-33
2022/11/11 03:56:44;;;;;;;36.50;23.08;;;9.70;99.90;;;;;;5069525;28;20094;-31
2022/11/11 03:59:09;;;;;;;32.67;23.52;;;9.70;99.90;;;;;;5063949;28;20072;-33
2022/11/11 04:16:04;;;;;;;39.25;25.02;;;9.70;99.90;;;;;;5068444;28;20082;-33
2022/11/11 04:18:05;;;;;;;41.20;26.55;;;9.80;99.90;;;;;;5075736;28;20044;-35
2022/11/11 04:23:14;;;;;;;38.55;23.00;;;9.90;99.90;;;;;;5071847;28;20036;-32
2022/11/11 04:25:49;;;;;;;41.00;25.67;;;9.90;99.90;;;;;;5060403;28;20110;-36
2022/11/11 04:30:59;;;;;;;32.38;22.48;;;9.90;99.90;;;;;;5067792;28;20040;-36
2022/11/11 04:33:25;;;;;;;36.42;23.55;;;10.00;99.90;;;;;;5073373;28;20124;-33
2022/11/11 04:35:51;;;;;;;35.90;22.67;;;10.00;99.90;;;;;;5065696;28;20095;-34
2022/11/11 04:41:03;;;;;;;;;;;10.10;99.90;;;;;;5075310;28;20501;-31
2022/11/11 04:43:30;;;;;;;32.83;22.33;;;10.20;99.90;;;;;;5050891;28;19999;-32
2022/11/11 04:46:00;;;;;;;31.48;21.92;;;10.20;99.90;;;;;;5049500;28;20040;-32
2022/11/11 04:48:26;;;;;;;35.38;21.90;;;10.20;99.90;;;;;;5064762;28;20040;-34
2022/11/11 04:50:52;;;;;;;34.35;22.95;;;10.20;99.90;;;;;;5057471;28;20048;-34
2022/11/11 04:53:18;;;;;;;34.75;22.35;;;10.20;99.90;;;;;;5064770;28;20045;-33
2022/11/11 04:58:33;;;;;;;33.03;22.30;;;10.30;99.90;;;;;;5076094;28;20055;-30
2022/11/11 05:01:00;;;;;;;32.05;22.05;;;10.30;99.90;;;;;;5077070;28;20036;-35
2022/11/11 05:03:26;;;;;;;32.25;21.63;;;10.30;99.90;;;;;;5071635;28;20123;-36
2022/11/11 05:08:55;;;;;;;32.65;22.27;;;10.40;99.90;;;;;;5025940;28;20493;-34
2022/11/11 05:11:24;;;;;;;30.70;21.73;;;10.40;99.90;;;;;;5082031;28;20040;-32
2022/11/11 05:22:23;;;;;;;28.88;20.98;;;10.30;99.90;;;;;;5077086;28;20122;-32
2022/11/11 05:27:34;;;;;;;31.98;20.58;;;10.20;99.90;;;;;;5078522;28;20051;-32
2022/11/11 05:30:00;;;;;;;32.67;21.35;;;10.20;99.90;;;;;;5068247;28;20037;-34
2022/11/11 05:32:26;;;;;;;31.75;21.17;;;10.20;99.90;;;;;;5039199;28;20398;-31
2022/11/11 05:34:52;;;;;;;29.63;20.15;;;10.20;99.90;;;;;;5046406;28;20397;-34
2022/11/11 05:37:18;;;;;;;30.10;20.08;;;10.20;99.90;;;;;;5067762;28;20052;-34
2022/11/11 05:39:44;;;;;;;28.88;20.13;;;10.20;99.90;;;;;;5083652;28;20089;-34
2022/11/11 05:42:10;;;;;;;30.33;20.75;;;10.20;99.90;;;;;;5063062;28;20121;-33
2022/11/11 05:44:36;;;;;;;29.60;21.73;;;10.20;99.90;;;;;;5056906;28;20047;-31
2022/11/11 05:47:02;;;;;;;31.02;21.08;;;10.30;99.90;;;;;;5063945;28;20029;-32
2022/11/11 05:49:28;;;;;;;31.02;20.77;;;10.30;99.90;;;;;;5048022;28;20033;-32
2022/11/11 05:51:58;;;;;;;31.05;20.67;;;10.30;99.90;;;;;;5035789;28;20032;-35
2022/11/11 05:54:23;;;;;;;30.50;20.30;;;10.30;99.90;;;;;;5047723;28;20037;-31
2022/11/11 05:56:49;;;;;;;30.63;20.25;;;10.30;99.90;;;;;;5068479;28;20036;-33
2022/11/11 05:59:15;;;;;;;29.50;20.80;;;10.30;99.90;;;;;;5057097;28;20033;-33
2022/11/11 06:01:42;;;;;;;27.15;19.40;;;10.40;99.90;;;;;;5044514;28;20029;-32
2022/11/11 06:04:08;;;;;;;28.05;19.70;;;10.30;99.90;;;;;;5058805;28;20123;-32
2022/11/11 06:06:35;;;;;;;31.45;20.42;;;10.40;99.90;;;;;;5057139;28;20029;-35
2022/11/11 06:09:02;;;;;;;27.98;18.00;;;10.40;99.90;;;;;;5062700;28;20033;-31
2022/11/11 06:11:28;;;;;;;25.38;19.58;;;10.40;99.90;;;;;;5037097;28;20087;-33
2022/11/11 06:13:54;;;;;;;27.98;20.08;;;10.40;99.90;;;;;;5052865;28;20029;-33
2022/11/11 06:16:20;;;;;;;31.83;19.88;;;10.40;99.90;;;;;;5039733;28;20041;-32
2022/11/11 06:18:46;;;;;;;32.55;19.48;;;10.40;99.90;;;;;;5047991;28;20036;-35
2022/11/11 06:21:12;;;;;;;32.72;20.63;;;10.40;99.90;;;;;;5065988;28;20529;-33
2022/11/11 06:23:38;;;;;;;27.83;20.05;;;10.40;99.90;;;;;;5070602;28;20116;-30
2022/11/11 06:26:12;;;;;;;28.08;20.38;;;10.40;99.90;;;;;;5064750;28;20040;-34
2022/11/11 06:28:49;;;;;;;29.95;19.00;;;10.40;99.90;;;;;;5070278;28;20494;-33
2022/11/11 06:31:17;;;;;;;29.08;19.50;;;10.40;99.90;;;;;;5069368;28;20041;-35
2022/11/11 06:33:43;;;;;;;29.95;19.17;;;10.40;99.90;;;;;;5064770;28;20044;-33
2022/11/11 06:36:12;;;;;;;28.92;20.10;;;10.40;99.90;;;;;;5072348;28;20039;-33
2022/11/11 06:38:39;;;;;;;30.50;19.27;;;10.40;99.90;;;;;;5050654;28;20494;-32
2022/11/11 06:41:05;;;;;;;28.80;17.55;;;10.40;99.90;;;;;;5052733;28;20127;-33
2022/11/11 06:43:31;;;;;;;26.85;18.38;;;10.40;99.90;;;;;;5049470;28;20049;-35
2022/11/11 06:45:57;;;;;;;26.85;18.60;;;10.40;99.90;;;;;;5049720;28;20036;-34
2022/11/11 06:48:24;;;;;;;28.80;18.42;;;10.40;99.90;;;;;;5069837;28;20041;-34
2022/11/11 06:50:51;;;;;;;28.27;19.55;;;10.40;99.90;;;;;;5057659;28;20414;-31
2022/11/11 06:53:18;;;;;;;26.00;18.48;;;10.40;99.90;;;;;;5054028;28;20036;-33
2022/11/11 06:55:44;;;;;;;22.75;17.17;;;10.40;99.90;;;;;;5059060;28;20433;-35
2022/11/11 06:58:16;;;;;;;28.52;18.15;;;10.40;99.90;;;;;;5058582;28;20062;-34
2022/11/11 07:00:43;;;;;;;27.80;18.02;;;10.50;99.90;;;;;;5069852;28;20032;-34
2022/11/11 07:03:11;;;;;;;24.02;17.35;;;10.50;99.90;;;;;;5057354;28;20044;-34
2022/11/11 07:05:37;;;;;;;25.23;17.27;;;10.50;99.90;;;;;;5073621;28;20089;-31
2022/11/11 07:08:05;;;;;;;29.92;17.98;;;10.50;99.90;;;;;;5065083;28;20037;-36
2022/11/11 07:10:33;;;;;;;28.38;17.63;;;10.50;99.90;;;;;;5054176;28;20040;-36
2022/11/11 07:12:59;;;;;;;30.52;17.83;;;10.50;99.90;;;;;;5082738;28;20044;-30
2022/11/11 07:15:25;;;;;;;26.33;18.25;;;10.50;99.90;;;;;;5068398;28;20482;-35
2022/11/11 07:17:51;;;;;;;25.63;18.00;;;10.50;99.90;;;;;;5080572;28;20040;-33
2022/11/11 07:20:16;;;;;;;25.40;17.48;;;10.50;99.90;;;;;;5067397;28;20040;-34
2022/11/11 07:22:42;;;;;;;27.13;18.23;;;10.50;99.90;;;;;;5067032;28;20036;-32
2022/11/11 07:25:08;;;;;;;25.00;17.63;;;10.50;99.90;;;;;;5073872;28;20047;-31
2022/11/11 07:27:40;;;;;;;23.85;17.75;;;10.50;99.90;;;;;;5069729;28;20067;-30
2022/11/11 07:30:07;;;;;;;25.30;16.63;;;10.50;99.90;;;;;;5073317;28;20098;-33
2022/11/11 07:32:33;;;;;;;24.33;16.90;;;10.60;99.90;;;;;;5056423;28;20385;-35
2022/11/11 07:34:59;;;;;;;25.33;17.38;;;10.60;99.90;;;;;;5062014;28;20045;-34
2022/11/11 07:37:25;;;;;;;28.48;16.92;;;10.60;99.90;;;;;;5053578;28;20044;-33
2022/11/11 07:39:51;;;;;;;26.45;17.75;;;10.60;99.90;;;;;;5073505;28;20120;-32
2022/11/11 07:42:16;;;;;;;21.98;16.92;;;10.60;99.90;;;;;;5073009;28;20186;-32
2022/11/11 07:44:45;;;;;;;23.85;17.10;;;10.60;99.90;;;;;;5073172;28;20089;-31
2022/11/11 07:47:11;;;;;;;24.63;17.05;;;10.60;99.90;;;;;;5059043;28;20456;-31
2022/11/11 07:49:37;;;;;;;21.85;15.77;;;10.60;99.90;;;;;;5070103;28;20120;-31
2022/11/11 07:52:03;;;;;;;23.15;15.88;;;10.60;99.90;;;;;;5052370;28;20490;-34
2022/11/11 07:54:28;;;;;;;23.50;14.75;;;10.60;99.90;;;;;;5072396;28;20094;-31
2022/11/11 07:56:54;;;;;;;21.58;15.98;;;10.60;99.90;;;;;;5057595;28;20452;-31
2022/11/11 07:59:20;;;;;;;23.20;15.85;;;10.70;99.90;;;;;;5068836;28;20440;-33
2022/11/11 08:01:45;;;;;;;25.33;16.05;;;10.70;99.90;;;;;;5064227;28;20040;-34
2022/11/11 08:04:11;;;;;;;26.50;17.08;;;10.70;99.90;;;;;;5070653;28;20085;-31
2022/11/11 08:06:37;;;;;;;25.88;16.77;;;10.70;99.90;;;;;;5071757;28;20029;-33
2022/11/11 08:09:03;;;;;;;26.73;16.80;;;10.70;99.90;;;;;;5070610;28;20121;-34
2022/11/11 08:14:12;;;;;;;22.60;15.82;;;10.70;99.90;;;;;;5082089;28;20529;-33
2022/11/11 08:16:39;;;;;;;23.75;16.25;;;10.70;99.90;;;;;;5060358;28;20040;-32
2022/11/11 08:19:05;;;;;;;20.90;15.57;;;10.70;99.90;;;;;;5065331;28;20041;-34
2022/11/11 08:21:31;;;;;;;25.25;15.65;;;10.70;99.90;;;;;;5067067;28;20106;-35
2022/11/11 08:23:56;;;;;;;24.60;16.52;;;10.70;99.90;;;;;;5056463;28;20025;-35
2022/11/11 08:26:23;;;;;;;22.77;15.52;;;10.70;99.90;;;;;;5064501;28;20417;-33
2022/11/11 08:28:50;;;;;;;23.08;15.40;;;10.70;99.90;;;;;;5073033;28;20032;-34
2022/11/11 08:31:16;;;;;;;22.48;15.63;;;10.80;99.90;;;;;;5055139;28;20123;-33
2022/11/11 08:33:41;;;;;;;23.80;15.32;;;10.80;99.90;;;;;;5050644;28;20506;-32
2022/11/11 08:36:10;;;;;;;26.38;15.68;;;10.80;99.90;;;;;;5071388;28;20040;-33
2022/11/11 08:38:36;;;;;;;20.65;14.95;;;10.80;99.90;;;;;;5063185;28;20083;-35
2022/11/11 08:41:05;;;;;;;23.63;15.88;;;10.80;99.90;;;;;;5060216;28;20063;-33
2022/11/11 08:43:31;;;;;;;24.98;16.42;;;10.80;99.90;;;;;;5071795;28;20060;-34
2022/11/11 08:45:59;;;;;;;19.95;15.45;;;10.90;99.90;;;;;;5069977;28;20044;-32
2022/11/11 08:48:24;;;;;;;20.55;14.95;;;10.90;99.90;;;;;;5060037;28;20063;-34
2022/11/11 08:50:52;;;;;;;21.55;14.98;;;10.90;99.90;;;;;;5071582;28;20058;-32
2022/11/11 08:53:18;;;;;;;22.42;16.48;;;10.90;99.90;;;;;;5054282;28;20047;-32
2022/11/11 08:55:44;;;;;;;20.52;14.75;;;11.00;99.90;;;;;;5061342;28;20044;-36
2022/11/11 08:58:11;;;;;;;24.35;14.40;;;11.00;99.90;;;;;;5052482;28;20043;-36
2022/11/11 09:00:37;;;;;;;24.40;14.82;;;11.10;99.90;;;;;;5071755;28;20086;-31
2022/11/11 09:03:08;;;;;;;20.88;15.95;;;11.10;99.90;;;;;;5071299;28;20032;-32
2022/11/11 09:05:36;;;;;;;25.38;16.63;;;11.10;99.90;;;;;;5065387;28;20386;-32
2022/11/11 09:08:07;;;;;;;18.23;14.73;;;11.10;99.90;;;;;;5073047;28;20117;-31
2022/11/11 09:10:36;;;;;;;24.60;15.95;;;11.10;99.90;;;;;;5066070;28;20041;-33
2022/11/11 09:13:03;;;;;;;22.70;15.13;;;11.10;99.90;;;;;;5055982;28;20033;-34
2022/11/11 09:15:29;;;;;;;21.67;15.43;;;11.20;99.90;;;;;;5076024;28;20489;-32
2022/11/11 09:17:54;;;;;;;19.52;15.35;;;11.20;99.90;;;;;;5070922;28;20039;-36
2022/11/11 09:20:20;;;;;;;21.25;14.93;;;11.30;99.90;;;;;;5051842;28;20041;-33
2022/11/11 09:22:47;;;;;;;16.60;14.57;;;11.30;99.90;;;;;;5051199;28;20037;-32
2022/11/11 09:25:14;;;;;;;22.55;15.85;;;11.40;99.90;;;;;;5070628;28;20063;-31
2022/11/11 09:27:40;;;;;;;21.13;15.70;;;11.50;99.90;;;;;;5053669;28;20040;-33
2022/11/11 09:30:07;;;;;;;22.45;16.90;;;11.50;99.90;;;;;;5063781;28;20032;-33
2022/11/11 09:32:33;;;;;;;22.48;16.40;;;11.60;99.90;;;;;;5054107;28;20088;-36
2022/11/11 09:34:59;;;;;;;29.17;19.52;;;11.60;99.90;;;;;;5062639;28;20129;-32
2022/11/11 09:37:26;;;;;;;27.38;19.80;;;11.60;99.90;;;;;;5076459;28;20037;-32
2022/11/11 09:39:52;;;;;;;24.73;17.83;;;11.60;99.90;;;;;;5066638;28;20033;-34
2022/11/11 09:42:38;;;;;;;26.48;19.05;;;11.60;99.90;;;;;;5070734;28;20047;-31
2022/11/11 09:45:19;;;;;;;26.80;18.13;;;11.60;99.90;;;;;;5034265;28;20037;-32
2022/11/11 09:47:45;;;;;;;26.92;17.13;;;11.50;99.90;;;;;;5067003;28;20123;-32
2022/11/11 09:50:21;;;;;;;28.25;18.50;;;11.50;99.90;;;;;;5051146;28;20163;-32
2022/11/11 09:53:04;;;;;;;29.33;17.30;;;11.60;99.90;;;;;;5082137;28;20040;-32
2022/11/11 09:55:51;;;;;;;24.33;17.70;;;11.50;99.90;;;;;;5061394;28;20473;-33
2022/11/11 09:58:31;;;;;;;24.75;17.30;;;11.50;99.90;;;;;;5064801;28;20028;-34
2022/11/11 10:01:17;;;;;;;23.02;16.90;;;11.50;99.90;;;;;;5069849;28;20115;-33
2022/11/11 10:03:58;;;;;;;25.33;16.88;;;11.40;99.90;;;;;;5045987;28;20068;-33
2022/11/11 10:06:30;;;;;;;22.73;16.40;;;11.40;99.90;;;;;;5060905;28;20050;-34
2022/11/11 10:09:02;;;;;;;25.27;16.70;;;11.40;99.90;;;;;;5047581;28;20044;-33
2022/11/11 10:12:01;;;;;;;25.60;16.67;;;11.40;99.90;;;;;;5064659;28;20322;-33
2022/11/11 10:14:35;;;;;;;26.13;17.27;;;11.30;99.90;;;;;;5052834;28;20049;-32
2022/11/11 10:17:19;;;;;;;;;;;11.30;99.90;;;;;;5053075;28;20032;-33
2022/11/11 10:19:51;;;;;;;21.45;15.93;;;11.30;99.90;;;;;;5064453;28;19923;-32
2022/11/11 10:22:17;;;;;;;22.30;15.98;;;11.30;99.90;;;;;;5069467;28;20040;-32
2022/11/11 10:24:47;;;;;;;22.60;15.85;;;11.30;99.90;;;;;;5063245;28;20063;-32
2022/11/11 10:27:20;;;;;;;20.50;15.55;;;11.30;99.90;;;;;;5068717;28;20502;-34
2022/11/11 10:29:48;;;;;;;23.77;16.10;;;11.30;99.90;;;;;;5064701;28;20028;-34
2022/11/11 10:32:24;;;;;;;24.00;16.00;;;11.30;99.90;;;;;;5070062;28;20505;-35
2022/11/11 10:34:50;;;;;;;19.92;15.30;;;11.30;99.90;;;;;;5070107;28;20036;-32
2022/11/11 10:37:20;;;;;;;21.15;15.15;;;11.30;99.90;;;;;;5053343;28;20028;-34
2022/11/11 10:40:16;;;;;;;19.85;15.15;;;11.30;99.90;;;;;;5054329;28;20028;-31
2022/11/11 10:42:42;;;;;;;21.70;15.10;;;11.30;99.90;;;;;;5070853;28;20044;-33
2022/11/11 10:45:23;;;;;;;19.83;14.00;;;11.30;99.90;;;;;;5029194;28;20056;-35
2022/11/11 10:48:00;;;;;;;19.20;14.60;;;11.30;99.90;;;;;;5056048;28;20094;-33
2022/11/11 10:50:43;;;;;;;17.45;14.32;;;11.30;99.90;;;;;;5069719;28;20499;-33
2022/11/11 10:53:32;;;;;;;19.90;15.02;;;11.40;99.90;;;;;;5079794;28;20071;-32
2022/11/11 10:56:07;;;;;;;17.77;14.68;;;11.40;99.90;;;;;;5059969;28;20120;-31
2022/11/11 10:58:54;;;;;;;21.08;14.40;;;11.40;99.90;;;;;;5069888;28;20036;-36
2022/11/11 11:01:37;;;;;;;18.17;14.50;;;11.50;99.90;;;;;;5065392;28;20455;-32
2022/11/11 11:04:14;;;;;;;21.50;15.10;;;11.50;99.90;;;;;;5076179;28;20040;-33
2022/11/11 11:06:45;;;;;;;20.95;14.55;;;11.60;99.90;;;;;;5070582;28;20040;-36
2022/11/11 11:09:25;;;;;;;18.85;14.70;;;11.70;99.90;;;;;;5056914;28;20036;-33
2022/11/11 11:12:13;;;;;;;19.08;14.90;;;11.70;99.90;;;;;;5085754;28;20456;-35
2022/11/11 11:14:43;;;;;;;18.52;14.65;;;11.90;99.90;;;;;;5066233;28;20048;-33
2022/11/11 11:17:35;;;;;;;19.05;15.32;;;12.00;99.90;;;;;;5073727;28;20398;-33
2022/11/11 11:20:09;;;;;;;19.10;13.98;;;12.10;99.90;;;;;;5082400;28;20370;-35
2022/11/11 11:22:51;;;;;;;19.88;15.20;;;12.10;99.90;;;;;;5075239;28;20054;-33
2022/11/11 11:25:19;;;;;;;16.60;14.60;;;12.20;99.90;;;;;;5049711;28;20075;-33
2022/11/11 11:27:45;;;;;;;18.38;15.02;;;12.30;99.90;;;;;;5076913;28;20035;-32
2022/11/11 11:30:25;;;;;;;17.77;14.02;;;12.70;99.90;;;;;;5070255;28;20044;-32
2022/11/11 11:33:02;;;;;;;16.25;13.02;;;13.30;99.90;;;;;;5042859;28;20048;-32
2022/11/11 11:35:33;;;;;;;15.70;13.38;;;13.70;99.90;;;;;;5047336;28;20044;-32
2022/11/11 11:37:58;;;;;;;16.27;13.73;;;13.90;99.90;;;;;;5059229;28;20032;-34
2022/11/11 11:40:24;;;;;;;17.95;13.50;;;14.30;99.90;;;;;;5073410;28;20037;-33
2022/11/11 11:42:50;;;;;;;15.95;13.30;;;14.80;99.90;;;;;;5073319;28;20032;-32
2022/11/11 11:45:22;;;;;;;14.10;12.55;;;15.50;99.90;;;;;;5055934;28;20036;-32
2022/11/11 11:47:53;;;;;;;15.32;12.65;;;15.90;99.90;;;;;;5070902;28;20040;-33
2022/11/11 11:50:41;;;;;;;13.88;11.77;;;16.30;99.90;;;;;;5059581;28;20456;-36
2022/11/11 11:53:28;;;;;;;12.30;11.00;;;16.60;99.90;;;;;;5071973;28;20440;-33
2022/11/11 11:56:04;;;;;;;13.52;11.93;;;16.50;99.90;;;;;;5068012;28;20041;-32
2022/11/11 11:59:18;;;;;;;14.45;12.65;;;16.70;99.90;;;;;;5057408;28;20127;-34
2022/11/11 12:01:53;;;;;;;15.32;12.10;;;17.10;99.90;;;;;;5042705;28;20041;-35
2022/11/11 12:04:19;;;;;;;12.65;11.35;;;17.40;99.90;;;;;;5074291;28;20451;-35
2022/11/11 12:06:51;;;;;;;12.43;11.07;;;17.60;99.90;;;;;;5069933;28;20115;-36
2022/11/11 12:09:38;;;;;;;13.07;11.77;;;17.60;99.90;;;;;;5064096;28;20067;-35
2022/11/11 12:12:26;;;;;;;13.43;12.02;;;17.50;99.90;;;;;;5063082;28;20072;-34
2022/11/11 12:15:16;;;;;;;12.90;11.60;;;17.70;99.90;;;;;;5072649;28;20528;-33
2022/11/11 12:17:52;;;;;;;12.95;11.57;;;18.20;99.90;;;;;;5052569;28;20098;-33
2022/11/11 12:20:28;;;;;;;13.10;10.65;;;18.70;99.90;;;;;;5078241;28;20123;-33
2022/11/11 12:23:06;;;;;;;13.43;12.02;;;18.90;99.90;;;;;;5072674;28;20087;-35
2022/11/11 12:25:50;;;;;;;14.40;11.70;;;19.10;99.90;;;;;;5059798;28;20036;-33
2022/11/11 12:28:45;;;;;;;11.63;10.43;;;19.60;99.90;;;;;;5067143;28;20032;-34
2022/11/11 12:31:13;;;;;;;11.38;10.20;;;20.10;99.90;;;;;;5066929;28;20044;-33
2022/11/11 12:34:17;;;;;;;11.60;10.00;;;20.50;99.90;;;;;;5061152;28;20041;-34
2022/11/11 12:36:51;;;;;;;10.80;9.77;;;20.60;99.90;;;;;;5073533;28;20073;-34
2022/11/11 12:39:44;;;;;;;11.85;9.38;;;20.20;99.90;;;;;;5055083;28;20119;-34
2022/11/11 12:42:34;;;;;;;13.55;9.93;;;19.90;99.90;;;;;;5072079;28;20408;-33
2022/11/11 12:45:22;;;;;;;10.70;9.60;;;19.30;99.90;;;;;;5045016;28;20384;-33
2022/11/11 12:48:02;;;;;;;10.02;9.05;;;18.80;99.90;;;;;;5065230;28;20024;-34
2022/11/11 12:50:51;;;;;;;10.35;8.63;;;18.50;99.90;;;;;;5073320;28;20068;-34
2022/11/11 12:53:17;;;;;;;11.07;8.32;;;18.30;99.90;;;;;;5068764;28;20450;-34
2022/11/11 12:55:47;;;;;;;9.60;8.63;;;18.10;99.90;;;;;;5058919;28;20076;-33
2022/11/11 12:58:24;;;;;;;9.82;8.70;;;17.80;99.90;;;;;;5069906;28;20077;-32
2022/11/11 13:01:05;;;;;;;11.95;8.48;;;17.60;99.90;;;;;;5064000;28;20040;-34
2022/11/11 13:03:35;;;;;;;10.65;8.20;;;17.70;99.90;;;;;;5054884;28;20048;-32
2022/11/11 13:06:31;;;;;;;10.50;8.98;;;18.10;99.90;;;;;;5071095;28;20039;-32
2022/11/11 13:09:21;;;;;;;9.23;8.32;;;18.50;99.90;;;;;;5060637;28;20044;-33
2022/11/11 13:12:03;;;;;;;9.30;8.30;;;18.60;99.90;;;;;;5048049;28;20041;-37
2022/11/11 13:14:57;;;;;;;11.68;8.98;;;19.10;99.90;;;;;;5064235;28;20125;-33
2022/11/11 13:17:23;;;;;;;10.20;8.13;;;19.40;99.90;;;;;;5068830;28;20037;-33
2022/11/11 13:19:58;;;;;;;8.88;7.78;;;19.60;99.90;;;;;;5070929;28;20036;-32
2022/11/11 13:22:31;;;;;;;8.65;7.50;;;19.20;99.90;;;;;;5056507;28;20086;-38
2022/11/11 13:25:01;;;;;;;9.27;8.38;;;19.10;99.90;;;;;;5070959;28;20036;-36
2022/11/11 13:27:47;;;;;;;11.55;8.10;;;19.20;99.90;;;;;;5071041;28;20072;-33
2022/11/11 13:30:40;;;;;;;9.00;8.10;;;19.00;99.90;;;;;;5079299;28;20040;-34
2022/11/11 13:33:24;;;;;;;12.35;9.15;;;18.90;99.90;;;;;;5079883;28;20505;-33
2022/11/11 13:35:58;;;;;;;8.38;7.57;;;18.80;99.90;;;;;;5057159;28;20033;-35
2022/11/11 13:38:30;;;;;;;9.27;8.23;;;18.80;99.90;;;;;;5061613;28;20036;-34
2022/11/11 13:40:59;;;;;;;10.43;7.43;;;18.50;99.90;;;;;;5060013;28;20037;-35
2022/11/11 13:43:32;;;;;;;11.57;7.90;;;18.20;99.90;;;;;;5065384;28;20389;-33
2022/11/11 13:46:00;;;;;;;8.65;7.72;;;17.80;99.90;;;;;;5067715;28;20394;-32
2022/11/11 13:48:47;;;;;;;8.15;7.35;;;17.60;99.90;;;;;;5063160;28;20525;-32
2022/11/11 13:51:30;;;;;;;8.80;7.88;;;17.40;99.90;;;;;;5047819;28;20478;-34
2022/11/11 13:53:58;;;;;;;8.55;7.65;;;17.10;99.90;;;;;;5071600;28;20504;-34
2022/11/11 13:56:34;;;;;;;9.73;7.38;;;16.80;99.90;;;;;;5065370;28;20048;-33
2022/11/11 13:59:00;;;;;;;12.07;7.53;;;16.50;99.90;;;;;;5060407;28;20037;-34